»·PEaware :: HADAJ KVNY-KVNY

HADAJ :: KVNY-KVNY

FLIGHT INFORMATION

Flight Status: Arrived
Operator: Unknown
More flights by this operator :: More flights under this callsign
Pilot: Tamer M. (30101)
Aircraft: Diamond DA-62
(DA62)
More flights by this aircraft type
Origin: KVNY Van Nuys
United States
Destination: KVNY Van Nuys
United States
More flights between these airports :: More routes between these airports
Route: VNY
File this flight plan on PilotEdge
Remarks: Practice ILS 16R with the published missed
Altitude:
(Current/Filed)
5,000ft
Speed:
(Current/Filed)
180kts
Departed: 19-Oct-21 10:44 AM
Arrived: 19-Oct-21 11:29 AM
Distance/Time
Traveled:
0nm/0:45
Distance/Time
To Go:
Arrived

Flight Plot

Page will automatically refresh every two minutes.


Map Options




Map Legend


Flown Route
Filed Route
Departure Airport
Arrival Airport
Navaid (VOR, NDB)
Fix

Horizontal Profiles

Position Reports

Time Latitude Longitude Heading Altitude Ground
Speed
19-Oct-21 10:25 34.203447 -118.491505 215 764ft 0kts
19-Oct-21 10:26 34.203447 -118.491505 215 764ft 0kts
19-Oct-21 10:27 34.203447 -118.491505 215 764ft 0kts
19-Oct-21 10:28 34.203447 -118.491505 215 764ft 0kts
19-Oct-21 10:29 34.203447 -118.491505 215 764ft 0kts
19-Oct-21 10:30 34.203447 -118.491505 215 764ft 0kts
19-Oct-21 10:31 34.203447 -118.491505 215 764ft 0kts
19-Oct-21 10:32 34.203447 -118.491505 215 764ft 0kts
19-Oct-21 10:33 34.203447 -118.491505 215 764ft 0kts
19-Oct-21 10:34 34.203447 -118.491505 215 764ft 0kts
19-Oct-21 10:35 34.203447 -118.491505 215 764ft 0kts
19-Oct-21 10:36 34.203773 -118.491202 30 766ft 11kts
19-Oct-21 10:37 34.207597 -118.491350 357 781ft 6kts
19-Oct-21 10:38 34.210542 -118.491628 355 785ft 17kts
19-Oct-21 10:38 34.213795 -118.491936 354 789ft 11kts
19-Oct-21 10:40 34.217115 -118.492281 358 799ft 15kts
19-Oct-21 10:41 34.218659 -118.492222 46 802ft 0kts
19-Oct-21 10:41 34.218659 -118.492222 46 802ft 0kts
19-Oct-21 10:42 34.218800 -118.491604 88 803ft 9kts
19-Oct-21 10:44 34.206952 -118.490123 178 975ft 106kts
19-Oct-21 10:45 34.186206 -118.472784 122 2450ft 96kts
19-Oct-21 10:45 34.174113 -118.450027 122 3630ft 97kts
19-Oct-21 10:46 34.159879 -118.412662 62 4204ft 137kts
19-Oct-21 10:47 34.185347 -118.429703 312 5011ft 152kts
19-Oct-21 10:49 34.220500 -118.477236 312 5009ft 167kts
19-Oct-21 10:50 34.251648 -118.519421 312 5008ft 168kts
19-Oct-21 10:50 34.277526 -118.554648 312 5004ft 168kts
19-Oct-21 10:51 34.308355 -118.596954 312 4992ft 167kts
19-Oct-21 10:52 34.346653 -118.619761 2 4997ft 164kts
19-Oct-21 10:53 34.392866 -118.617751 2 5012ft 165kts
19-Oct-21 10:54 34.437967 -118.615976 9 5046ft 149kts
19-Oct-21 10:55 34.444957 -118.578735 91 5100ft 115kts
19-Oct-21 10:56 34.424682 -118.550799 142 5148ft 125kts
19-Oct-21 10:57 34.394688 -118.526151 129 5128ft 129kts
19-Oct-21 10:58 34.361740 -118.504339 169 4136ft 155kts
19-Oct-21 10:59 34.320344 -118.500810 172 3201ft 149kts
19-Oct-21 11:00 34.279333 -118.497119 171 2280ft 135kts
19-Oct-21 11:01 34.246367 -118.493964 172 1538ft 110kts
19-Oct-21 11:02 34.215262 -118.491234 178 1341ft 119kts
19-Oct-21 11:03 34.177275 -118.482869 164 2502ft 117kts
19-Oct-21 11:04 34.150717 -118.474251 165 4176ft 96kts
19-Oct-21 11:05 34.116477 -118.463237 166 4597ft 164kts
19-Oct-21 11:06 34.070900 -118.456103 181 4592ft 168kts
19-Oct-21 11:07 34.024558 -118.461099 217 4579ft 168kts
19-Oct-21 11:08 34.020393 -118.512365 278 4589ft 164kts
19-Oct-21 11:09 34.047725 -118.545126 351 4999ft 167kts
19-Oct-21 11:10 34.095571 -118.551968 351 4998ft 176kts
19-Oct-21 11:11 34.144113 -118.558779 351 4982ft 175kts
19-Oct-21 11:12 34.191775 -118.565399 352 4978ft 170kts
19-Oct-21 11:13 34.238550 -118.572246 352 4975ft 168kts
19-Oct-21 11:14 34.284922 -118.579860 352 4971ft 169kts
19-Oct-21 11:15 34.331715 -118.587645 352 4973ft 169kts
19-Oct-21 11:16 34.378397 -118.595391 352 4981ft 169kts
19-Oct-21 11:17 34.424509 -118.601622 10 5037ft 165kts
19-Oct-21 11:18 34.469227 -118.592665 13 5099ft 161kts
19-Oct-21 11:19 34.484922 -118.557156 87 5180ft 122kts
19-Oct-21 11:20 34.457530 -118.531604 143 5139ft 131kts
19-Oct-21 11:21 34.424211 -118.511250 153 5164ft 140kts
19-Oct-21 11:22 34.383252 -118.506583 169 4572ft 152kts
19-Oct-21 11:23 34.339271 -118.502607 170 3610ft 158kts
19-Oct-21 11:24 34.300797 -118.499017 169 2759ft 120kts
19-Oct-21 11:25 34.268817 -118.496072 172 2047ft 114kts
19-Oct-21 11:26 34.237091 -118.493069 173 1334ft 113kts
19-Oct-21 11:27 34.208965 -118.490301 175 784ft 46kts
19-Oct-21 11:28 34.206553 -118.491103 249 777ft 2kts
19-Oct-21 11:29 34.204304 -118.491569 270 769ft 0kts
19-Oct-21 11:30 34.204304 -118.491569 270 769ft 0kts

Navigation Log

Ident Type
Flight plan parsing failed, navigation log unavailable